createdAt,value
2022-10-17T00:00:11.944Z,8.60
2022-10-17T00:01:11.945Z,7.60
2022-10-17T00:02:11.945Z,10.00
2022-10-17T00:03:11.920Z,8.60
2022-10-17T00:04:11.922Z,8.20
2022-10-17T00:05:11.908Z,7.60
2022-10-17T00:06:11.906Z,9.00
2022-10-17T00:07:11.913Z,9.00
2022-10-17T00:08:11.898Z,9.50
2022-10-17T00:09:11.877Z,9.20
2022-10-17T00:10:11.903Z,9.00
2022-10-17T00:11:11.862Z,10.00
2022-10-17T00:12:11.859Z,9.20
2022-10-17T00:13:11.882Z,9.50
2022-10-17T00:14:11.846Z,10.80
2022-10-17T00:15:11.866Z,9.30
2022-10-17T00:16:11.824Z,10.70
2022-10-17T00:17:11.857Z,12.00
2022-10-17T00:18:11.847Z,10.50
2022-10-17T00:19:11.821Z,12.30
2022-10-17T00:20:11.805Z,10.60
2022-10-17T00:21:11.819Z,12.00
2022-10-17T00:22:11.788Z,12.20
2022-10-17T00:23:11.779Z,12.50
2022-10-17T00:24:11.818Z,11.50
2022-10-17T00:25:11.789Z,14.50
2022-10-17T00:26:11.778Z,10.40
2022-10-17T00:27:11.763Z,9.90
2022-10-17T00:28:11.763Z,10.50
2022-10-17T00:29:11.758Z,13.30
2022-10-17T00:30:11.743Z,10.50
2022-10-17T00:31:11.737Z,7.00
2022-10-17T00:32:11.762Z,7.70
2022-10-17T00:33:11.710Z,10.80
2022-10-17T00:34:11.748Z,9.90
2022-10-17T00:35:11.702Z,11.90
2022-10-17T00:36:11.721Z,10.60
2022-10-17T00:37:11.697Z,10.30
2022-10-17T00:38:11.707Z,11.40
2022-10-17T00:39:11.689Z,8.20
2022-10-17T00:40:11.669Z,9.50
2022-10-17T00:41:11.700Z,9.80
2022-10-17T00:42:11.662Z,9.90
2022-10-17T00:43:12.466Z,9.00
2022-10-17T00:44:11.674Z,10.10
2022-10-17T00:45:11.665Z,7.80
2022-10-17T00:46:11.634Z,10.00
2022-10-17T00:47:11.621Z,8.60
2022-10-17T00:48:11.658Z,9.00
2022-10-17T00:49:11.658Z,9.30
2022-10-17T00:50:11.630Z,8.40
2022-10-17T00:51:11.606Z,8.50
2022-10-17T00:52:12.063Z,8.40
2022-10-17T00:53:11.603Z,12.70
2022-10-17T00:54:11.598Z,9.70
2022-10-17T00:55:11.596Z,9.40
2022-10-17T00:56:11.591Z,10.60
2022-10-17T00:57:11.603Z,7.40
2022-10-17T00:58:11.585Z,8.90
2022-10-17T00:59:11.572Z,7.60
2022-10-17T01:00:11.551Z,9.60
2022-10-17T01:01:11.564Z,9.40
2022-10-17T01:02:11.551Z,9.00
2022-10-17T01:03:11.534Z,9.10
2022-10-17T01:04:11.538Z,10.60
2022-10-17T01:05:11.529Z,10.00
2022-10-17T01:06:11.498Z,7.60
2022-10-17T01:07:11.519Z,8.70
2022-10-17T01:08:11.497Z,7.20
2022-10-17T01:09:11.501Z,11.60
2022-10-17T01:10:11.552Z,7.90
2022-10-17T01:11:11.481Z,8.80
2022-10-17T01:12:11.493Z,7.60
2022-10-17T01:13:11.478Z,9.20
2022-10-17T01:14:11.466Z,9.60
2022-10-17T01:15:11.450Z,9.80
2022-10-17T01:16:11.462Z,9.00
2022-10-17T01:17:11.458Z,11.70
2022-10-17T01:18:11.434Z,10.10
2022-10-17T01:19:11.493Z,10.30
2022-10-17T01:20:12.018Z,11.10
2022-10-17T01:21:11.418Z,9.00
2022-10-17T01:22:11.558Z,8.80
2022-10-17T01:23:11.401Z,9.90
2022-10-17T01:24:11.410Z,10.10
2022-10-17T01:25:11.450Z,8.60
2022-10-17T01:26:11.398Z,7.70
2022-10-17T01:27:11.393Z,8.60
2022-10-17T01:28:11.362Z,7.30
2022-10-17T01:29:11.370Z,9.70
2022-10-17T01:30:11.350Z,6.60
2022-10-17T01:31:11.350Z,7.60
2022-10-17T01:32:11.359Z,9.00
2022-10-17T01:33:11.333Z,8.70
2022-10-17T01:34:11.321Z,9.30
2022-10-17T01:35:11.345Z,9.10
2022-10-17T01:36:11.318Z,10.40
2022-10-17T01:37:11.307Z,8.60
2022-10-17T01:38:11.330Z,7.90
2022-10-17T01:39:11.298Z,7.80
2022-10-17T01:40:11.301Z,10.90
2022-10-17T01:41:11.288Z,11.70
2022-10-17T01:42:11.284Z,11.30
2022-10-17T01:43:11.270Z,10.50
2022-10-17T01:44:11.278Z,9.40
2022-10-17T01:45:11.261Z,8.20
2022-10-17T01:46:11.248Z,7.80
2022-10-17T01:47:11.248Z,11.30
2022-10-17T01:48:11.242Z,11.00
2022-10-17T01:49:11.241Z,10.90
2022-10-17T01:50:11.225Z,10.50
2022-10-17T01:51:11.226Z,11.00
2022-10-17T01:52:11.241Z,9.70
2022-10-17T01:53:11.214Z,8.90
2022-10-17T01:54:11.246Z,9.60
2022-10-17T01:55:11.214Z,9.50
2022-10-17T01:56:11.196Z,10.20
2022-10-17T01:57:11.177Z,12.90
2022-10-17T01:58:11.194Z,9.20
2022-10-17T01:59:11.173Z,11.00
2022-10-17T02:00:11.160Z,11.10
2022-10-17T02:01:11.220Z,9.50
2022-10-17T02:02:11.142Z,8.40
2022-10-17T02:03:12.135Z,15.10
2022-10-17T02:04:11.122Z,13.40
2022-10-17T02:05:11.127Z,12.80
2022-10-17T02:06:11.121Z,13.10
2022-10-17T02:07:11.109Z,16.10
2022-10-17T02:08:11.091Z,12.80
2022-10-17T02:09:11.089Z,15.60
2022-10-17T02:10:11.093Z,15.10
2022-10-17T02:11:11.105Z,15.20
2022-10-17T02:12:11.073Z,16.10
2022-10-17T02:13:11.061Z,13.60
2022-10-17T02:15:11.053Z,12.50
2022-10-17T02:16:11.045Z,13.60
2022-10-17T02:17:11.045Z,15.30
2022-10-17T02:18:11.020Z,9.70
2022-10-17T02:19:11.029Z,9.50
2022-10-17T02:20:11.017Z,10.20
2022-10-17T02:21:11.037Z,11.60
2022-10-17T02:22:11.017Z,10.30
2022-10-17T02:23:11.052Z,10.90
2022-10-17T02:24:10.980Z,13.00
2022-10-17T02:25:10.989Z,12.90
2022-10-17T02:26:11.003Z,14.10
2022-10-17T02:27:10.966Z,16.10
2022-10-17T02:28:10.956Z,14.90
2022-10-17T02:29:10.965Z,16.30
2022-10-17T02:30:10.947Z,14.50
2022-10-17T02:31:10.945Z,11.70
2022-10-17T02:32:10.998Z,13.00
2022-10-17T02:33:11.945Z,14.10
2022-10-17T02:34:10.933Z,11.10
2022-10-17T02:35:10.917Z,12.60
2022-10-17T02:36:10.913Z,11.00
2022-10-17T02:37:10.909Z,11.60
2022-10-17T02:38:10.911Z,7.20
2022-10-17T02:39:10.876Z,10.60
2022-10-17T02:40:10.889Z,12.80
2022-10-17T02:41:10.874Z,8.00
2022-10-17T02:42:10.880Z,8.90
2022-10-17T02:43:10.868Z,9.30
2022-10-17T02:44:10.855Z,8.20
2022-10-17T02:45:10.841Z,10.20
2022-10-17T02:46:10.843Z,12.70
2022-10-17T02:47:11.856Z,13.00
2022-10-17T02:48:10.834Z,10.00
2022-10-17T02:49:10.825Z,12.90
2022-10-17T02:50:10.809Z,11.70
2022-10-17T02:51:10.802Z,9.20
2022-10-17T02:52:10.806Z,13.00
2022-10-17T02:53:10.777Z,10.40
2022-10-17T02:54:10.781Z,12.60
2022-10-17T02:55:10.777Z,13.60
2022-10-17T02:56:10.800Z,14.10
2022-10-17T02:57:10.773Z,11.70
2022-10-17T02:58:10.773Z,11.60
2022-10-17T02:59:10.748Z,12.00
2022-10-17T03:00:10.737Z,12.90
2022-10-17T03:01:10.778Z,10.30
2022-10-17T03:02:10.759Z,11.30
2022-10-17T03:03:10.749Z,10.60
2022-10-17T03:04:10.715Z,11.70
2022-10-17T03:05:10.706Z,11.60
2022-10-17T03:06:10.696Z,10.50
2022-10-17T03:07:10.717Z,11.10
2022-10-17T03:08:10.696Z,10.80
2022-10-17T03:09:10.664Z,13.30
2022-10-17T03:10:10.678Z,15.10
2022-10-17T03:11:10.701Z,11.20
2022-10-17T03:12:10.668Z,14.50
2022-10-17T03:13:10.670Z,11.20
2022-10-17T03:14:10.646Z,14.80
2022-10-17T03:15:10.676Z,9.20
2022-10-17T03:16:10.635Z,10.80
2022-10-17T03:17:10.646Z,12.10
2022-10-17T03:18:10.621Z,11.40
2022-10-17T03:19:10.616Z,14.30
2022-10-17T03:20:10.620Z,10.50
2022-10-17T03:21:10.588Z,10.90
2022-10-17T03:22:10.617Z,12.40
2022-10-17T03:23:10.585Z,12.90
2022-10-17T03:24:10.574Z,10.80
2022-10-17T03:25:38.024Z,10.70
2022-10-17T03:26:10.557Z,11.00
2022-10-17T03:27:10.556Z,10.90
2022-10-17T03:28:10.573Z,9.40
2022-10-17T03:29:10.642Z,9.10
2022-10-17T03:30:10.545Z,11.40
2022-10-17T03:31:10.549Z,11.10
2022-10-17T03:32:10.521Z,27.20
2022-10-17T03:33:10.525Z,20.30
2022-10-17T03:34:10.524Z,11.70
2022-10-17T03:35:14.796Z,10.30
2022-10-17T03:36:11.494Z,8.50
2022-10-17T03:37:10.502Z,13.60
2022-10-17T03:38:10.490Z,12.40
2022-10-17T03:39:10.477Z,15.10
2022-10-17T03:40:10.474Z,14.90
2022-10-17T03:41:10.484Z,14.80
2022-10-17T03:42:10.454Z,10.60
2022-10-17T03:43:10.454Z,9.00
2022-10-17T03:44:10.442Z,11.60
2022-10-17T03:45:10.438Z,10.30
2022-10-17T03:46:10.471Z,10.10
2022-10-17T03:47:13.339Z,9.50
2022-10-17T03:48:10.409Z,12.80
2022-10-17T03:49:10.426Z,8.60
2022-10-17T03:50:10.398Z,10.60
2022-10-17T03:51:10.402Z,9.10
2022-10-17T03:52:10.387Z,11.10
2022-10-17T03:53:10.394Z,11.00
2022-10-17T03:54:10.409Z,9.80
2022-10-17T03:55:10.384Z,11.80
2022-10-17T03:56:10.360Z,7.00
2022-10-17T03:57:10.361Z,9.30
2022-10-17T03:58:10.382Z,9.50
2022-10-17T03:59:10.357Z,8.90
2022-10-17T04:00:10.356Z,11.10
2022-10-17T04:01:10.386Z,11.10
2022-10-17T04:02:11.037Z,14.40
2022-10-17T04:03:16.263Z,9.40
2022-10-17T04:04:12.329Z,16.90
2022-10-17T04:05:11.032Z,17.40
2022-10-17T04:06:10.293Z,19.20
2022-10-17T04:07:10.292Z,13.20
2022-10-17T04:08:10.293Z,15.00
2022-10-17T04:09:10.297Z,9.90
2022-10-17T04:10:10.290Z,15.70
2022-10-17T04:11:10.268Z,11.10
2022-10-17T04:12:10.292Z,13.30
2022-10-17T04:13:10.252Z,11.40
2022-10-17T04:14:10.256Z,9.80
2022-10-17T04:15:10.277Z,12.60
2022-10-17T04:16:10.250Z,10.90
2022-10-17T04:17:10.236Z,11.50
2022-10-17T04:18:10.222Z,10.60
2022-10-17T04:19:10.212Z,9.60
2022-10-17T04:20:10.219Z,7.10
2022-10-17T04:21:10.212Z,7.40
2022-10-17T04:22:10.208Z,8.40
2022-10-17T04:23:10.192Z,16.70
2022-10-17T04:24:10.180Z,10.30
2022-10-17T04:25:10.169Z,8.00
2022-10-17T04:26:10.193Z,9.00
2022-10-17T04:27:10.161Z,9.10
2022-10-17T04:28:10.165Z,8.80
2022-10-17T04:29:10.141Z,8.30
2022-10-17T04:30:10.133Z,8.90
2022-10-17T04:31:10.134Z,11.20
2022-10-17T04:32:10.140Z,12.40
2022-10-17T04:33:10.121Z,9.20
2022-10-17T04:34:10.116Z,9.50
2022-10-17T04:35:11.000Z,10.30
2022-10-17T04:36:10.096Z,11.40
2022-10-17T04:37:10.100Z,15.00
2022-10-17T04:38:10.096Z,8.60
2022-10-17T04:39:10.138Z,9.80
2022-10-17T04:40:10.070Z,13.10
2022-10-17T04:41:10.087Z,12.10
2022-10-17T04:42:10.073Z,12.00
2022-10-17T04:43:10.053Z,12.40
2022-10-17T04:44:10.049Z,10.30
2022-10-17T04:45:10.060Z,11.70
2022-10-17T04:46:10.030Z,11.60
2022-10-17T04:47:10.052Z,11.70
2022-10-17T04:48:10.025Z,13.60
2022-10-17T04:49:10.019Z,12.90
2022-10-17T04:50:10.029Z,15.20
2022-10-17T04:51:10.026Z,13.10
2022-10-17T04:52:10.005Z,20.80
2022-10-17T04:53:10.012Z,14.90
2022-10-17T04:54:10.019Z,9.40
2022-10-17T04:55:10.055Z,14.30
2022-10-17T04:56:10.535Z,15.00
2022-10-17T04:57:09.944Z,15.60
2022-10-17T04:58:10.083Z,17.40
2022-10-17T04:59:09.947Z,12.40
2022-10-17T05:01:10.980Z,9.90
2022-10-17T05:02:09.916Z,10.20
2022-10-17T05:03:09.928Z,9.10
2022-10-17T05:04:09.924Z,10.40
2022-10-17T05:05:09.901Z,12.50
2022-10-17T05:06:09.896Z,11.20
2022-10-17T05:07:09.903Z,12.10
2022-10-17T05:08:09.926Z,10.30
2022-10-17T05:09:10.865Z,10.70
2022-10-17T05:10:09.863Z,11.50
2022-10-17T05:11:09.853Z,9.90
2022-10-17T05:12:10.494Z,11.90
2022-10-17T05:13:09.849Z,12.10
2022-10-17T05:14:09.863Z,9.00
2022-10-17T05:15:09.816Z,9.30
2022-10-17T05:16:10.815Z,9.60
2022-10-17T05:17:09.835Z,10.60
2022-10-17T05:18:09.824Z,9.90
2022-10-17T05:19:09.842Z,10.20
2022-10-17T05:20:09.792Z,11.50
2022-10-17T05:21:09.786Z,10.70
2022-10-17T05:22:09.782Z,11.80
2022-10-17T05:23:09.763Z,10.00
2022-10-17T05:24:09.771Z,11.00
2022-10-17T05:25:09.786Z,13.60
2022-10-17T05:26:09.754Z,10.70
2022-10-17T05:27:09.750Z,9.00
2022-10-17T05:28:09.730Z,9.90
2022-10-17T05:29:09.811Z,8.50
2022-10-17T05:30:09.790Z,8.40
2022-10-17T05:31:09.731Z,10.80
2022-10-17T05:32:09.713Z,10.30
2022-10-17T05:33:09.717Z,9.10
2022-10-17T05:34:11.657Z,10.10
2022-10-17T05:35:09.707Z,9.00
2022-10-17T05:36:09.697Z,9.30
2022-10-17T05:37:09.681Z,10.30
2022-10-17T05:38:09.673Z,11.70
2022-10-17T05:39:09.692Z,10.10
2022-10-17T05:40:09.678Z,13.30
2022-10-17T05:41:09.648Z,9.60
2022-10-17T05:42:09.672Z,9.70
2022-10-17T05:43:09.631Z,10.50
2022-10-17T05:44:09.639Z,12.30
2022-10-17T05:45:09.649Z,10.80
2022-10-17T05:46:09.643Z,11.80
2022-10-17T05:47:09.639Z,11.20
2022-10-17T05:48:09.607Z,10.50
2022-10-17T05:49:19.436Z,10.50
2022-10-17T05:50:11.605Z,10.70
2022-10-17T05:51:09.650Z,12.40
2022-10-17T05:52:09.596Z,12.30
2022-10-17T05:53:09.570Z,10.20
2022-10-17T05:54:10.593Z,9.00
2022-10-17T05:55:09.655Z,11.60
2022-10-17T05:56:09.708Z,11.40
2022-10-17T05:57:09.580Z,13.30
2022-10-17T05:58:14.252Z,12.40
2022-10-17T05:59:10.536Z,11.20
2022-10-17T06:00:09.595Z,10.90
2022-10-17T06:01:12.112Z,10.80
2022-10-17T06:02:09.607Z,11.20
2022-10-17T06:03:09.550Z,12.10
2022-10-17T06:04:09.495Z,11.10
2022-10-17T06:05:09.499Z,11.30
2022-10-17T06:06:09.538Z,12.20
2022-10-17T06:07:09.482Z,10.60
2022-10-17T06:08:09.505Z,14.70
2022-10-17T06:09:09.506Z,12.70
2022-10-17T06:10:09.458Z,11.10
2022-10-17T06:11:10.536Z,10.70
2022-10-17T06:12:09.489Z,11.20
2022-10-17T06:13:09.446Z,13.70
2022-10-17T06:14:09.433Z,9.80
2022-10-17T06:15:09.444Z,11.40
2022-10-17T06:16:09.424Z,10.10
2022-10-17T06:17:14.817Z,10.20
2022-10-17T06:18:11.409Z,11.10
2022-10-17T06:19:09.454Z,9.40
2022-10-17T06:20:09.440Z,11.70
2022-10-17T06:21:09.386Z,10.00
2022-10-17T06:22:09.537Z,9.30
2022-10-17T06:23:09.373Z,8.70
2022-10-17T06:24:09.372Z,10.10
2022-10-17T06:25:09.388Z,7.80
2022-10-17T06:26:09.347Z,8.40
2022-10-17T06:27:11.793Z,8.60
2022-10-17T06:28:10.352Z,9.40
2022-10-17T06:29:10.519Z,8.90
2022-10-17T06:30:09.332Z,11.20
2022-10-17T06:31:09.329Z,9.10
2022-10-17T06:32:12.599Z,8.80
2022-10-17T06:33:10.310Z,9.00
2022-10-17T06:34:09.308Z,10.80
2022-10-17T06:35:09.304Z,9.10
2022-10-17T06:36:09.276Z,8.50
2022-10-17T06:37:09.308Z,10.60
2022-10-17T06:38:09.280Z,8.40
2022-10-17T06:39:09.251Z,7.80
2022-10-17T06:40:09.251Z,7.60
2022-10-17T06:41:09.247Z,8.80
2022-10-17T06:42:09.238Z,10.00
2022-10-17T06:43:09.250Z,9.20
2022-10-17T06:44:09.259Z,9.30
2022-10-17T06:45:09.238Z,9.80
2022-10-17T06:46:09.200Z,10.30
2022-10-17T06:47:09.230Z,10.70
2022-10-17T06:48:10.025Z,8.20
2022-10-17T06:49:10.207Z,8.40
2022-10-17T06:50:09.180Z,11.10
2022-10-17T06:51:09.177Z,8.30
2022-10-17T06:52:09.193Z,8.60
2022-10-17T06:53:09.189Z,9.40
2022-10-17T06:54:09.171Z,12.80
2022-10-17T06:55:09.163Z,8.30
2022-10-17T06:56:09.139Z,7.70
2022-10-17T06:57:09.214Z,9.20
2022-10-17T06:58:09.136Z,9.50
2022-10-17T06:59:09.207Z,9.20
2022-10-17T07:00:09.117Z,7.90
2022-10-17T07:02:10.117Z,7.70
2022-10-17T07:03:09.149Z,7.90
2022-10-17T07:04:09.100Z,8.80
2022-10-17T07:05:09.255Z,8.10
2022-10-17T07:06:09.068Z,7.40
2022-10-17T07:07:09.064Z,8.30
2022-10-17T07:08:10.111Z,7.90
2022-10-17T07:09:09.072Z,7.70
2022-10-17T07:10:09.083Z,7.40
2022-10-17T07:11:09.103Z,7.50
2022-10-17T07:12:09.060Z,7.80
2022-10-17T07:13:09.041Z,8.00
2022-10-17T07:14:09.036Z,7.40
2022-10-17T07:15:09.067Z,8.60
2022-10-17T07:16:09.047Z,8.40
2022-10-17T07:17:09.020Z,6.60
2022-10-17T07:18:09.035Z,7.40
2022-10-17T07:19:10.024Z,7.20
2022-10-17T07:20:09.010Z,6.50
2022-10-17T07:21:09.063Z,8.90
2022-10-17T07:22:08.987Z,7.10
2022-10-17T07:23:08.983Z,7.00
2022-10-17T07:24:08.994Z,6.40
2022-10-17T07:25:08.975Z,6.60
2022-10-17T07:26:09.011Z,6.20
2022-10-17T07:27:08.967Z,6.60
2022-10-17T07:28:09.002Z,8.00
2022-10-17T07:29:08.978Z,6.80
2022-10-17T07:30:08.945Z,7.20
2022-10-17T07:31:09.034Z,7.60
2022-10-17T07:32:08.990Z,7.40
2022-10-17T07:33:08.913Z,6.30
2022-10-17T07:34:08.928Z,5.70
2022-10-17T07:35:08.921Z,6.80
2022-10-17T07:36:08.909Z,10.60
2022-10-17T07:37:09.018Z,9.00
2022-10-17T07:38:08.933Z,6.90
2022-10-17T07:39:08.881Z,7.70
2022-10-17T07:40:08.905Z,5.60
2022-10-17T07:41:08.917Z,7.90
2022-10-17T07:42:08.873Z,5.90
2022-10-17T07:43:08.874Z,7.30
2022-10-17T07:44:08.886Z,5.90
2022-10-17T07:45:08.868Z,5.50
2022-10-17T07:46:08.868Z,5.50
2022-10-17T07:47:08.956Z,10.40
2022-10-17T07:48:08.843Z,6.20
2022-10-17T07:49:08.842Z,4.90
2022-10-17T07:50:08.835Z,6.30
2022-10-17T07:51:08.873Z,7.80
2022-10-17T07:52:08.824Z,7.60
2022-10-17T07:53:08.812Z,7.40
2022-10-17T07:54:08.827Z,8.30
2022-10-17T07:55:08.846Z,8.60
2022-10-17T07:56:08.792Z,5.20
2022-10-17T07:57:08.852Z,8.90
2022-10-17T07:58:08.778Z,5.80
2022-10-17T07:59:09.540Z,6.60
2022-10-17T08:00:08.767Z,6.20
2022-10-17T08:01:12.209Z,8.00
2022-10-17T08:02:09.779Z,9.10
2022-10-17T08:03:08.756Z,9.00
2022-10-17T08:04:08.747Z,8.10
2022-10-17T08:05:08.739Z,7.20
2022-10-17T08:06:08.736Z,7.10
2022-10-17T08:07:21.001Z,8.90
2022-10-17T08:08:10.743Z,10.70
2022-10-17T08:09:08.738Z,9.60
2022-10-17T08:11:08.715Z,13.30
2022-10-17T08:12:08.715Z,8.90
2022-10-17T08:13:08.741Z,8.30
2022-10-17T08:14:08.679Z,10.70
2022-10-17T08:15:08.714Z,8.00
2022-10-17T08:16:08.679Z,10.00
2022-10-17T08:17:08.736Z,12.10
2022-10-17T08:18:08.686Z,9.50
2022-10-17T08:20:08.662Z,5.80
2022-10-17T08:21:08.715Z,8.20
2022-10-17T08:22:08.658Z,7.00
2022-10-17T08:23:08.658Z,7.00
2022-10-17T08:24:08.710Z,7.00
2022-10-17T08:25:08.647Z,10.80
2022-10-17T08:26:08.618Z,9.30
2022-10-17T08:27:08.636Z,8.90
2022-10-17T08:28:08.647Z,8.20
2022-10-17T08:29:08.675Z,8.90
2022-10-17T08:30:08.610Z,7.00
2022-10-17T08:31:08.605Z,7.80
2022-10-17T08:32:09.864Z,8.40
2022-10-17T08:33:08.587Z,9.00
2022-10-17T08:34:08.634Z,8.40
2022-10-17T08:35:08.590Z,7.20
2022-10-17T08:36:08.590Z,11.30
2022-10-17T08:37:08.564Z,10.10
2022-10-17T08:38:11.021Z,5.20
2022-10-17T08:39:08.591Z,7.00
2022-10-17T08:40:08.598Z,7.40
2022-10-17T08:41:08.543Z,4.80
2022-10-17T08:42:08.510Z,9.90
2022-10-17T08:43:08.541Z,8.50
2022-10-17T08:44:08.501Z,6.70
2022-10-17T08:45:08.518Z,7.70
2022-10-17T08:46:08.503Z,9.60
2022-10-17T08:47:08.482Z,6.70
2022-10-17T08:48:08.477Z,5.60
2022-10-17T08:49:12.089Z,6.10
2022-10-17T08:50:09.486Z,7.70
2022-10-17T08:51:08.465Z,5.80
2022-10-17T08:52:08.450Z,5.70
2022-10-17T08:53:08.471Z,7.60
2022-10-17T08:54:08.476Z,6.90
2022-10-17T08:55:08.483Z,5.60
2022-10-17T08:56:11.947Z,8.40
2022-10-17T08:57:10.972Z,6.50
2022-10-17T08:58:08.432Z,7.50
2022-10-17T08:59:08.399Z,7.30
2022-10-17T09:00:08.416Z,7.30
2022-10-17T09:01:12.921Z,5.20
2022-10-17T09:02:09.391Z,6.30
2022-10-17T09:03:08.479Z,9.20
2022-10-17T09:04:08.387Z,5.30
2022-10-17T09:05:08.464Z,11.00
2022-10-17T09:06:08.392Z,7.30
2022-10-17T09:07:08.360Z,6.80
2022-10-17T09:08:08.453Z,5.10
2022-10-17T09:09:08.350Z,5.10
2022-10-17T09:10:08.355Z,6.90
2022-10-17T09:11:08.360Z,7.60
2022-10-17T09:12:08.364Z,10.00
2022-10-17T09:13:08.415Z,6.50
2022-10-17T09:14:08.323Z,5.80
2022-10-17T09:15:08.346Z,5.80
2022-10-17T09:16:08.336Z,9.30
2022-10-17T09:17:08.310Z,6.30
2022-10-17T09:18:08.327Z,4.80
2022-10-17T09:19:08.299Z,5.30
2022-10-17T09:20:08.276Z,7.20
2022-10-17T09:21:08.341Z,5.80
2022-10-17T09:22:08.275Z,6.70
2022-10-17T09:23:08.266Z,6.50
2022-10-17T09:24:15.433Z,3.90
2022-10-17T09:25:11.246Z,4.10
2022-10-17T09:26:08.258Z,7.60
2022-10-17T09:27:08.255Z,6.30
2022-10-17T09:28:08.284Z,4.90
2022-10-17T09:29:08.332Z,5.50
2022-10-17T09:30:13.044Z,7.00
2022-10-17T09:31:34.200Z,5.90
2022-10-17T09:32:08.202Z,6.20
2022-10-17T09:33:08.204Z,5.70
2022-10-17T09:34:08.198Z,5.30
2022-10-17T09:35:08.194Z,6.90
2022-10-17T09:36:08.181Z,4.60
2022-10-17T09:37:08.190Z,5.70
2022-10-17T09:38:08.191Z,5.60
2022-10-17T09:39:08.170Z,4.90
2022-10-17T09:40:08.174Z,3.60
2022-10-17T09:41:25.676Z,5.40
2022-10-17T09:42:10.158Z,5.60
2022-10-17T09:43:08.200Z,5.80
2022-10-17T09:44:08.134Z,6.50
2022-10-17T09:45:08.142Z,6.40
2022-10-17T09:46:08.114Z,4.80
2022-10-17T09:47:08.162Z,8.30
2022-10-17T09:48:08.127Z,5.80
2022-10-17T09:49:08.924Z,5.30
2022-10-17T09:50:08.104Z,7.40
2022-10-17T09:51:22.024Z,7.30
2022-10-17T09:52:10.093Z,8.10
2022-10-17T09:53:08.095Z,10.00
2022-10-17T09:54:08.126Z,4.80
2022-10-17T09:55:08.071Z,7.40
2022-10-17T09:56:08.066Z,7.30
2022-10-17T09:57:08.062Z,7.60
2022-10-17T09:58:08.050Z,5.00
2022-10-17T09:59:12.909Z,5.90
2022-10-17T10:00:10.075Z,5.00
2022-10-17T10:01:08.109Z,6.20
2022-10-17T10:02:08.034Z,8.30
2022-10-17T10:03:09.037Z,8.20
2022-10-17T10:04:08.034Z,6.90
2022-10-17T10:05:08.026Z,6.80
2022-10-17T10:06:07.998Z,13.10
2022-10-17T10:07:07.991Z,4.40
2022-10-17T10:08:08.031Z,5.90
2022-10-17T10:09:07.990Z,4.70
2022-10-17T10:10:07.982Z,5.30
2022-10-17T10:11:11.838Z,5.90
2022-10-17T10:12:08.978Z,4.70
2022-10-17T10:13:07.977Z,8.70
2022-10-17T10:14:07.966Z,7.40
2022-10-17T10:15:07.999Z,5.70
2022-10-17T10:16:07.957Z,8.20
2022-10-17T10:17:07.945Z,4.00
2022-10-17T10:18:07.945Z,6.80
2022-10-17T10:19:09.143Z,8.00
2022-10-17T10:20:07.963Z,4.90
2022-10-17T10:21:07.953Z,4.60
2022-10-17T10:22:07.924Z,4.30
2022-10-17T10:23:07.926Z,3.60
2022-10-17T10:24:07.933Z,6.40
2022-10-17T10:25:07.913Z,4.20
2022-10-17T10:26:07.917Z,8.90
2022-10-17T10:27:07.921Z,6.20
2022-10-17T10:28:07.895Z,7.10
2022-10-17T10:29:07.982Z,7.40
2022-10-17T10:30:07.886Z,4.40
2022-10-17T10:31:07.889Z,8.80
2022-10-17T10:32:07.877Z,6.50
2022-10-17T10:33:07.873Z,5.80
2022-10-17T10:34:07.877Z,5.20
2022-10-17T10:35:07.868Z,8.70
2022-10-17T10:36:07.859Z,7.50
2022-10-17T10:37:07.870Z,4.70
2022-10-17T10:38:07.849Z,5.00
2022-10-17T10:39:07.866Z,6.00
2022-10-17T10:40:07.855Z,6.60
2022-10-17T10:41:07.836Z,3.60
2022-10-17T10:42:07.828Z,5.00
2022-10-17T10:43:07.841Z,3.30
2022-10-17T10:44:07.821Z,4.40
2022-10-17T10:45:11.979Z,6.20
2022-10-17T10:46:08.833Z,3.90
2022-10-17T10:47:07.796Z,5.60
2022-10-17T10:48:07.829Z,3.20
2022-10-17T10:49:07.804Z,4.30
2022-10-17T10:50:07.795Z,6.30
2022-10-17T10:51:07.796Z,4.80
2022-10-17T10:52:07.796Z,4.20
2022-10-17T10:53:07.767Z,6.60
2022-10-17T10:54:08.768Z,5.00
2022-10-17T10:55:07.743Z,5.30
2022-10-17T10:56:07.747Z,6.10
2022-10-17T10:57:07.751Z,4.80
2022-10-17T10:58:07.752Z,7.00
2022-10-17T10:59:07.728Z,4.50
2022-10-17T11:00:07.723Z,5.50
2022-10-17T11:01:07.831Z,5.30
2022-10-17T11:02:07.758Z,4.20
2022-10-17T11:03:11.847Z,3.30
2022-10-17T11:04:09.705Z,8.40
2022-10-17T11:05:07.692Z,4.40
2022-10-17T11:06:07.702Z,3.80
2022-10-17T11:07:08.697Z,4.80
2022-10-17T11:08:07.663Z,4.60
2022-10-17T11:09:07.656Z,7.40
2022-10-17T11:10:07.645Z,2.80
2022-10-17T11:11:07.645Z,5.50
2022-10-17T11:12:07.651Z,6.20
2022-10-17T11:13:07.648Z,4.80
2022-10-17T11:14:09.644Z,3.60
2022-10-17T11:15:08.615Z,7.20
2022-10-17T11:16:07.621Z,4.70
2022-10-17T11:17:07.611Z,4.60
2022-10-17T11:18:07.615Z,5.70
2022-10-17T11:19:07.624Z,3.90
2022-10-17T11:20:07.608Z,7.50
2022-10-17T11:21:08.106Z,4.10
2022-10-17T11:22:07.606Z,4.50
2022-10-17T11:23:07.602Z,3.60
2022-10-17T11:24:09.048Z,5.50
2022-10-17T11:25:07.582Z,3.50
2022-10-17T11:26:07.577Z,3.40
2022-10-17T11:27:07.560Z,4.80
2022-10-17T11:28:07.564Z,5.60
2022-10-17T11:29:07.646Z,5.20
2022-10-17T11:30:07.555Z,2.70
2022-10-17T11:31:08.126Z,4.90
2022-10-17T11:32:07.525Z,5.60
2022-10-17T11:33:07.647Z,4.20
2022-10-17T11:34:07.532Z,4.90
2022-10-17T11:35:07.547Z,3.70
2022-10-17T11:36:07.511Z,5.60
2022-10-17T11:37:07.503Z,6.80
2022-10-17T11:38:07.507Z,6.10
2022-10-17T11:39:07.499Z,7.30
2022-10-17T11:40:07.483Z,5.50
2022-10-17T11:41:07.483Z,5.00
2022-10-17T11:42:07.483Z,7.10
2022-10-17T11:43:07.482Z,5.30
2022-10-17T11:44:07.531Z,6.10
2022-10-17T11:45:07.476Z,5.10
2022-10-17T11:46:07.450Z,4.90
2022-10-17T11:47:07.445Z,5.70
2022-10-17T11:48:07.434Z,4.20
2022-10-17T11:49:07.535Z,7.70
2022-10-17T11:52:09.429Z,3.50
2022-10-17T11:53:07.413Z,6.20
2022-10-17T11:54:07.464Z,5.10
2022-10-17T11:55:07.399Z,4.40
2022-10-17T11:56:07.406Z,5.10
2022-10-17T11:57:08.523Z,4.80
2022-10-17T11:58:07.365Z,3.90
2022-10-17T11:59:07.370Z,5.80
2022-10-17T12:00:07.399Z,5.40
2022-10-17T12:01:07.370Z,4.50
2022-10-17T12:02:07.377Z,5.20
2022-10-17T12:03:07.344Z,4.60
2022-10-17T12:04:07.426Z,3.30
2022-10-17T12:05:07.335Z,4.60
2022-10-17T12:06:07.340Z,6.40
2022-10-17T12:07:07.345Z,3.10
2022-10-17T12:08:07.344Z,4.80
2022-10-17T12:09:07.348Z,7.50
2022-10-17T12:10:07.303Z,6.60
2022-10-17T12:11:07.291Z,6.00
2022-10-17T12:12:07.303Z,4.40
2022-10-17T12:13:08.283Z,3.60
2022-10-17T12:14:07.613Z,5.10
2022-10-17T12:15:07.287Z,3.50
2022-10-17T12:16:07.272Z,3.30
2022-10-17T12:17:07.263Z,7.60
2022-10-17T12:18:07.267Z,7.00
2022-10-17T12:19:07.267Z,4.60
2022-10-17T12:20:07.265Z,4.50
2022-10-17T12:21:07.231Z,5.60
2022-10-17T12:22:07.236Z,4.00
2022-10-17T12:23:07.253Z,14.10
2022-10-17T12:24:07.243Z,5.00
2022-10-17T12:25:07.220Z,6.00
2022-10-17T12:26:07.244Z,3.50
2022-10-17T12:27:07.275Z,4.60
2022-10-17T12:28:07.246Z,4.20
2022-10-17T12:29:07.291Z,4.10
2022-10-17T12:30:07.186Z,3.70
2022-10-17T12:31:07.205Z,3.80
2022-10-17T12:32:07.165Z,8.20
2022-10-17T12:33:08.270Z,5.30
2022-10-17T12:34:08.168Z,4.60
2022-10-17T12:35:07.155Z,3.30
2022-10-17T12:36:07.156Z,8.30
2022-10-17T12:37:07.171Z,5.70
2022-10-17T12:38:07.143Z,4.50
2022-10-17T12:39:07.787Z,5.50
2022-10-17T12:40:07.137Z,5.90
2022-10-17T12:41:07.154Z,6.90
2022-10-17T12:42:07.144Z,5.60
2022-10-17T12:43:07.144Z,6.10
2022-10-17T12:44:07.125Z,3.90
2022-10-17T12:45:07.154Z,3.60
2022-10-17T12:46:07.099Z,4.00
2022-10-17T12:47:07.152Z,6.00
2022-10-17T12:48:07.079Z,4.50
2022-10-17T12:49:07.089Z,4.50
2022-10-17T12:50:07.613Z,3.20
2022-10-17T12:52:09.057Z,5.20
2022-10-17T12:53:07.054Z,2.90
2022-10-17T12:54:07.058Z,4.70
2022-10-17T12:55:14.661Z,3.50
2022-10-17T12:56:09.039Z,6.10
2022-10-17T12:57:07.028Z,2.60
2022-10-17T12:58:07.019Z,3.70
2022-10-17T12:59:07.018Z,6.00
2022-10-17T13:00:07.032Z,4.20
2022-10-17T13:02:08.999Z,3.50
2022-10-17T13:03:07.033Z,4.30
2022-10-17T13:04:06.992Z,3.00
2022-10-17T13:05:06.971Z,4.00
2022-10-17T13:06:06.984Z,5.10
2022-10-17T13:07:06.966Z,5.10
2022-10-17T13:08:06.984Z,5.40
2022-10-17T13:09:06.948Z,4.60
2022-10-17T13:10:07.698Z,6.10
2022-10-17T13:11:07.528Z,4.30
2022-10-17T13:12:06.990Z,4.60
2022-10-17T13:13:06.941Z,5.20
2022-10-17T13:14:07.049Z,4.90
2022-10-17T13:15:06.939Z,4.20
2022-10-17T13:16:06.918Z,4.10
2022-10-17T13:17:06.921Z,3.10
2022-10-17T13:18:06.920Z,3.40